createdAt,value
2023-03-20T00:02:22.117Z,4.00
2023-03-20T00:04:49.267Z,4.10
2023-03-20T00:07:16.579Z,4.20
2023-03-20T00:09:43.721Z,4.20
2023-03-20T00:12:18.828Z,4.30
2023-03-20T00:14:46.062Z,4.20
2023-03-20T00:17:20.536Z,4.40
2023-03-20T00:19:47.818Z,4.50
2023-03-20T00:22:14.920Z,4.60
2023-03-20T00:24:42.047Z,4.70
2023-03-20T00:27:14.206Z,4.80
2023-03-20T00:29:41.426Z,5.00
2023-03-20T00:32:13.935Z,5.10
2023-03-20T00:34:41.449Z,5.10
2023-03-20T00:37:11.815Z,5.10
2023-03-20T00:39:39.392Z,5.10
2023-03-20T00:42:09.483Z,5.00
2023-03-20T00:44:54.159Z,5.00
2023-03-20T00:47:24.395Z,5.00
2023-03-20T00:49:54.667Z,5.00
2023-03-20T00:52:23.309Z,5.10
2023-03-20T00:54:50.397Z,5.30
2023-03-20T00:57:55.668Z,5.60
2023-03-20T01:00:45.494Z,5.90
2023-03-20T01:03:20.936Z,6.10
2023-03-20T01:05:50.725Z,6.20
2023-03-20T01:08:26.176Z,6.30
2023-03-20T01:10:55.961Z,6.30
2023-03-20T01:13:29.358Z,6.50
2023-03-20T01:16:00.771Z,6.60
2023-03-20T01:18:28.276Z,6.60
2023-03-20T01:20:55.421Z,6.60
2023-03-20T01:23:26.849Z,6.70
2023-03-20T01:25:53.980Z,6.60
2023-03-20T01:28:24.446Z,6.50
2023-03-20T01:30:52.809Z,6.60
2023-03-20T01:33:26.697Z,6.40
2023-03-20T01:35:54.173Z,6.30
2023-03-20T01:38:24.675Z,6.30
2023-03-20T01:41:14.819Z,6.30
2023-03-20T01:43:42.057Z,6.30
2023-03-20T01:46:12.302Z,6.30
2023-03-20T01:48:51.435Z,6.30
2023-03-20T01:51:26.451Z,6.40
2023-03-20T01:53:59.369Z,6.30
2023-03-20T01:56:29.959Z,6.30
2023-03-20T01:59:14.201Z,6.20
2023-03-20T02:01:43.270Z,6.20
2023-03-20T02:04:12.110Z,6.10
2023-03-20T02:06:40.449Z,6.10
2023-03-20T02:09:08.367Z,6.10
2023-03-20T02:11:38.644Z,6.00
2023-03-20T02:14:07.159Z,6.10
2023-03-20T02:16:34.269Z,6.10
2023-03-20T02:19:02.150Z,6.00
2023-03-20T02:21:44.530Z,6.00
2023-03-20T02:24:49.115Z,5.90
2023-03-20T02:27:33.859Z,5.90
2023-03-20T02:30:24.351Z,5.90
2023-03-20T02:33:18.562Z,6.00
2023-03-20T02:36:15.773Z,6.00
2023-03-20T02:39:03.271Z,6.00
2023-03-20T02:42:17.088Z,6.10
2023-03-20T02:45:18.194Z,6.10
2023-03-20T02:48:06.014Z,6.10
2023-03-20T02:51:15.881Z,6.10
2023-03-20T02:54:13.660Z,6.20
2023-03-20T02:57:06.086Z,6.20
2023-03-20T02:59:47.484Z,6.20
2023-03-20T03:02:45.953Z,6.20
2023-03-20T03:05:24.167Z,6.10
2023-03-20T03:07:56.440Z,6.10
2023-03-20T03:10:30.924Z,6.20
2023-03-20T03:13:01.021Z,6.40
2023-03-20T03:15:42.213Z,6.50
2023-03-20T03:18:16.282Z,6.60
2023-03-20T03:20:45.887Z,6.80
2023-03-20T03:23:26.757Z,6.80
2023-03-20T03:25:56.224Z,6.90
2023-03-20T03:28:47.579Z,6.90
2023-03-20T03:31:18.207Z,7.10
2023-03-20T03:33:50.406Z,7.20
2023-03-20T03:36:44.720Z,7.30
2023-03-20T03:39:17.941Z,7.40
2023-03-20T03:42:21.544Z,7.50
2023-03-20T03:45:12.820Z,7.40
2023-03-20T03:47:54.324Z,7.40
2023-03-20T03:50:39.420Z,7.50
2023-03-20T03:53:12.312Z,7.40
2023-03-20T03:55:46.053Z,7.40
2023-03-20T03:58:34.715Z,7.40
2023-03-20T04:01:04.726Z,7.50
2023-03-20T04:03:38.487Z,7.50
2023-03-20T04:06:07.374Z,7.40
2023-03-20T04:08:35.038Z,7.40
2023-03-20T04:11:02.280Z,7.40
2023-03-20T04:13:29.670Z,7.40
2023-03-20T04:15:57.433Z,7.40
2023-03-20T04:18:24.524Z,7.40
2023-03-20T04:20:52.517Z,7.40
2023-03-20T04:23:19.614Z,7.40
2023-03-20T04:25:46.690Z,7.50
2023-03-20T04:28:16.457Z,7.50
2023-03-20T04:30:48.258Z,7.50
2023-03-20T04:33:15.493Z,7.50
2023-03-20T04:35:42.637Z,7.60
2023-03-20T04:38:09.745Z,7.60
2023-03-20T04:40:37.049Z,7.70
2023-03-20T04:43:04.436Z,7.70
2023-03-20T04:45:31.653Z,7.70
2023-03-20T04:47:58.738Z,7.80
2023-03-20T04:50:26.126Z,7.80
2023-03-20T04:52:53.255Z,7.80
2023-03-20T04:55:20.507Z,7.70
2023-03-20T04:57:47.604Z,7.70
2023-03-20T05:00:15.640Z,7.70
2023-03-20T05:02:44.308Z,7.70
2023-03-20T05:05:12.223Z,7.70
2023-03-20T05:07:39.462Z,7.70
2023-03-20T05:10:07.032Z,7.70
2023-03-20T05:12:34.121Z,7.70
2023-03-20T05:15:01.975Z,7.70
2023-03-20T05:17:29.041Z,7.80
2023-03-20T05:19:57.551Z,7.80
2023-03-20T05:22:24.686Z,7.80
2023-03-20T05:24:51.998Z,7.80
2023-03-20T05:27:19.217Z,7.80
2023-03-20T05:29:46.340Z,7.80
2023-03-20T05:32:14.783Z,7.80
2023-03-20T05:34:41.893Z,7.90
2023-03-20T05:37:09.146Z,7.90
2023-03-20T05:39:36.232Z,8.00
2023-03-20T05:42:03.608Z,8.00
2023-03-20T05:44:30.970Z,8.00
2023-03-20T05:46:58.084Z,8.10
2023-03-20T05:49:25.379Z,8.10
2023-03-20T05:51:52.460Z,8.20
2023-03-20T05:54:19.704Z,8.20
2023-03-20T05:56:47.164Z,8.20
2023-03-20T05:59:14.338Z,8.30
2023-03-20T06:01:41.402Z,8.20
2023-03-20T06:04:08.659Z,8.30
2023-03-20T06:06:38.119Z,8.40
2023-03-20T06:09:05.957Z,8.40
2023-03-20T06:11:35.474Z,8.40
2023-03-20T06:14:04.011Z,8.30
2023-03-20T06:16:31.213Z,8.30
2023-03-20T06:18:58.508Z,8.30
2023-03-20T06:21:25.648Z,8.30
2023-03-20T06:23:54.477Z,8.40
2023-03-20T06:26:21.926Z,8.40
2023-03-20T06:28:49.181Z,8.40
2023-03-20T06:31:16.506Z,8.30
2023-03-20T06:33:44.488Z,8.40
2023-03-20T06:36:12.663Z,8.40
2023-03-20T06:38:39.758Z,8.50
2023-03-20T06:41:07.243Z,8.60
2023-03-20T06:43:34.650Z,8.60
2023-03-20T06:46:01.811Z,8.50
2023-03-20T06:48:30.636Z,8.60
2023-03-20T06:50:57.721Z,8.60
2023-03-20T06:53:27.148Z,8.70
2023-03-20T06:55:54.976Z,8.70
2023-03-20T06:58:22.118Z,8.70
2023-03-20T07:00:49.226Z,8.80
2023-03-20T07:03:16.756Z,8.90
2023-03-20T07:05:44.961Z,8.90
2023-03-20T07:08:12.424Z,8.80
2023-03-20T07:10:39.624Z,8.80
2023-03-20T07:13:06.754Z,8.80
2023-03-20T07:15:33.943Z,8.90
2023-03-20T07:18:01.431Z,8.80
2023-03-20T07:20:28.565Z,8.80
2023-03-20T07:22:55.819Z,8.80
2023-03-20T07:25:41.530Z,8.80
2023-03-20T07:28:09.990Z,8.70
2023-03-20T07:30:37.322Z,8.70
2023-03-20T07:33:04.597Z,8.80
2023-03-20T07:35:32.938Z,8.90
2023-03-20T07:38:00.158Z,8.90
2023-03-20T07:40:27.510Z,8.90
2023-03-20T07:42:54.584Z,8.90
2023-03-20T07:45:21.717Z,9.00
2023-03-20T07:47:49.103Z,8.90
2023-03-20T07:50:16.914Z,9.00
2023-03-20T07:52:51.712Z,9.10
2023-03-20T07:55:18.919Z,9.20
2023-03-20T07:57:46.018Z,9.30
2023-03-20T08:00:14.205Z,9.20
2023-03-20T08:02:42.692Z,9.20
2023-03-20T08:05:13.241Z,9.10
2023-03-20T08:07:42.185Z,9.10
2023-03-20T08:10:14.209Z,9.10
2023-03-20T08:12:41.929Z,9.10
2023-03-20T08:15:10.316Z,9.20
2023-03-20T08:17:39.192Z,9.20
2023-03-20T08:20:07.574Z,9.10
2023-03-20T08:22:34.786Z,9.00
2023-03-20T08:25:03.099Z,8.90
2023-03-20T08:27:32.495Z,8.90
2023-03-20T08:29:59.630Z,8.70
2023-03-20T08:32:26.769Z,8.70
2023-03-20T08:34:57.347Z,8.60
2023-03-20T08:37:24.457Z,8.60
2023-03-20T08:39:51.526Z,8.60
2023-03-20T08:42:18.660Z,8.70
2023-03-20T08:44:45.821Z,8.60
2023-03-20T08:47:12.921Z,8.70
2023-03-20T08:49:40.181Z,8.80
2023-03-20T08:52:07.297Z,8.90
2023-03-20T08:54:34.644Z,8.90
2023-03-20T08:57:01.867Z,8.90
2023-03-20T08:59:29.397Z,8.90
2023-03-20T09:01:56.569Z,8.90
2023-03-20T09:04:23.798Z,8.90
2023-03-20T09:06:51.775Z,8.80
2023-03-20T09:09:20.270Z,8.80
2023-03-20T09:11:47.581Z,8.70
2023-03-20T09:14:16.226Z,8.70
2023-03-20T09:16:43.662Z,8.70
2023-03-20T09:19:11.203Z,8.60
2023-03-20T09:21:38.366Z,8.60
2023-03-20T09:24:06.143Z,8.50
2023-03-20T09:26:33.393Z,8.50
2023-03-20T09:29:00.504Z,8.50
2023-03-20T09:31:27.682Z,8.50
2023-03-20T09:33:54.922Z,8.50
2023-03-20T09:36:22.115Z,8.50
2023-03-20T09:38:49.255Z,8.60
2023-03-20T09:41:28.320Z,8.60
2023-03-20T09:44:39.220Z,8.60
2023-03-20T09:47:22.247Z,8.70
2023-03-20T09:50:01.297Z,8.90
2023-03-20T09:52:41.568Z,9.00
2023-03-20T09:55:26.044Z,9.10
2023-03-20T09:58:04.043Z,9.30
2023-03-20T10:00:35.758Z,9.60
2023-03-20T10:03:31.809Z,9.80
2023-03-20T10:06:04.064Z,10.00
2023-03-20T10:08:36.515Z,9.90
2023-03-20T10:11:52.646Z,9.80
2023-03-20T10:14:47.326Z,9.80
2023-03-20T10:17:38.979Z,10.00
2023-03-20T10:20:12.158Z,10.30
2023-03-20T10:22:48.470Z,10.70
2023-03-20T10:25:32.529Z,11.00
2023-03-20T10:28:04.813Z,11.20
2023-03-20T10:31:08.946Z,11.20
2023-03-20T10:34:11.275Z,11.10
2023-03-20T10:36:44.165Z,11.00
2023-03-20T10:39:41.964Z,10.90
2023-03-20T10:42:23.862Z,10.60
2023-03-20T10:45:31.902Z,10.40
2023-03-20T10:48:04.307Z,10.40
2023-03-20T10:50:42.895Z,10.40
2023-03-20T10:53:26.520Z,10.40
2023-03-20T10:55:58.650Z,10.40
2023-03-20T10:58:32.416Z,10.70
2023-03-20T11:01:00.445Z,10.90
2023-03-20T11:03:31.780Z,11.20
2023-03-20T11:06:23.874Z,11.40
2023-03-20T11:08:53.306Z,11.60
2023-03-20T11:11:31.186Z,11.60
2023-03-20T11:14:10.453Z,11.60
2023-03-20T11:16:38.986Z,11.50
2023-03-20T11:19:09.113Z,11.30
2023-03-20T11:22:05.951Z,11.10
2023-03-20T11:24:44.888Z,11.10
2023-03-20T11:27:25.574Z,11.00
2023-03-20T11:29:54.642Z,11.10
2023-03-20T11:32:35.426Z,11.00
2023-03-20T11:35:31.618Z,11.00
2023-03-20T11:38:21.385Z,10.90
2023-03-20T11:40:52.848Z,10.90
2023-03-20T11:43:24.624Z,10.90
2023-03-20T11:45:58.116Z,11.30
2023-03-20T11:48:37.207Z,11.50
2023-03-20T11:51:24.700Z,11.80
2023-03-20T11:54:08.022Z,12.10
2023-03-20T11:56:36.843Z,12.80
2023-03-20T11:59:15.427Z,13.70
2023-03-20T12:01:55.087Z,14.60
2023-03-20T12:04:38.037Z,14.60
2023-03-20T12:07:16.102Z,14.30
2023-03-20T12:09:53.070Z,14.50
2023-03-20T12:12:42.835Z,14.50
2023-03-20T12:15:41.473Z,14.40
2023-03-20T12:18:36.259Z,14.20
2023-03-20T12:21:30.144Z,14.20
2023-03-20T12:24:05.224Z,14.30
2023-03-20T12:27:13.711Z,14.50
2023-03-20T12:29:53.460Z,14.60
2023-03-20T12:32:29.651Z,14.10
2023-03-20T12:35:16.846Z,13.80
2023-03-20T12:37:45.765Z,13.30
2023-03-20T12:40:18.003Z,12.80
2023-03-20T12:42:59.991Z,12.70
2023-03-20T12:45:53.955Z,12.50
2023-03-20T12:48:50.673Z,12.30
2023-03-20T12:52:07.094Z,12.00
2023-03-20T12:55:21.201Z,12.00
2023-03-20T12:58:25.826Z,12.30
2023-03-20T13:01:08.815Z,12.70
2023-03-20T13:04:00.468Z,13.00
2023-03-20T13:06:40.951Z,13.20
2023-03-20T13:09:36.086Z,13.40
2023-03-20T13:12:36.494Z,13.30
2023-03-20T13:15:15.910Z,13.40
2023-03-20T13:18:06.826Z,13.30
2023-03-20T13:20:54.619Z,13.30
2023-03-20T13:24:00.440Z,13.30
2023-03-20T13:26:46.866Z,13.20
2023-03-20T13:29:42.342Z,13.10
2023-03-20T13:32:45.767Z,13.00
2023-03-20T13:35:34.627Z,12.90
2023-03-20T13:38:16.802Z,12.80
2023-03-20T13:40:46.549Z,12.90
2023-03-20T13:43:31.915Z,12.90
2023-03-20T13:46:53.181Z,13.10
2023-03-20T13:49:30.791Z,13.40
2023-03-20T13:51:57.868Z,13.40
2023-03-20T13:54:59.305Z,13.40
2023-03-20T13:57:44.135Z,13.50
2023-03-20T14:00:20.677Z,13.60
2023-03-20T14:03:16.249Z,13.50
2023-03-20T14:05:44.684Z,13.40
2023-03-20T14:08:33.390Z,13.30
2023-03-20T14:11:21.804Z,13.30
2023-03-20T14:14:01.080Z,13.40
2023-03-20T14:16:29.520Z,13.40
2023-03-20T14:19:17.635Z,13.40
2023-03-20T14:21:52.807Z,13.60
2023-03-20T14:24:21.130Z,13.60
2023-03-20T14:26:59.481Z,13.60
2023-03-20T14:29:29.589Z,13.70
2023-03-20T14:32:14.713Z,13.70
2023-03-20T14:35:26.450Z,13.60
2023-03-20T14:38:04.912Z,13.50
2023-03-20T14:40:42.391Z,13.60
2023-03-20T14:43:41.590Z,13.50
2023-03-20T14:46:31.765Z,13.50
2023-03-20T14:49:16.953Z,13.20
2023-03-20T14:51:51.609Z,13.10
2023-03-20T14:54:21.783Z,12.90
2023-03-20T14:56:52.146Z,12.70
2023-03-20T14:59:25.258Z,12.70
2023-03-20T15:01:59.852Z,12.80
2023-03-20T15:04:42.578Z,12.90
2023-03-20T15:07:21.772Z,13.10
2023-03-20T15:09:54.351Z,13.20
2023-03-20T15:12:25.648Z,13.40
2023-03-20T15:14:58.240Z,13.50
2023-03-20T15:17:36.594Z,13.70
2023-03-20T15:20:24.988Z,14.00
2023-03-20T15:23:01.316Z,14.40
2023-03-20T15:25:40.724Z,14.70
2023-03-20T15:28:13.100Z,14.90
2023-03-20T15:30:41.436Z,15.00
2023-03-20T15:33:17.885Z,14.90
2023-03-20T15:35:45.149Z,14.50
2023-03-20T15:38:16.427Z,14.40
2023-03-20T15:40:50.962Z,14.50
2023-03-20T15:43:26.845Z,14.20
2023-03-20T15:46:16.327Z,13.80
2023-03-20T15:48:49.825Z,13.60
2023-03-20T15:51:18.522Z,13.50
2023-03-20T15:53:48.557Z,13.40
2023-03-20T15:56:19.816Z,13.10
2023-03-20T15:58:55.402Z,12.90
2023-03-20T16:01:25.443Z,12.90
2023-03-20T16:03:53.858Z,13.00
2023-03-20T16:06:24.577Z,13.10
2023-03-20T16:09:05.884Z,13.20
2023-03-20T16:11:40.709Z,13.10
2023-03-20T16:14:24.626Z,13.20
2023-03-20T16:16:55.477Z,13.20
2023-03-20T16:19:24.954Z,13.00
2023-03-20T16:22:13.534Z,12.90
2023-03-20T16:24:46.443Z,12.80
2023-03-20T16:27:29.239Z,12.80
2023-03-20T16:29:57.106Z,12.60
2023-03-20T16:32:41.434Z,12.40
2023-03-20T16:35:20.041Z,12.20
2023-03-20T16:37:59.518Z,12.00
2023-03-20T16:40:36.809Z,11.90
2023-03-20T16:43:20.591Z,11.80
2023-03-20T16:45:54.521Z,11.80
2023-03-20T16:48:31.532Z,11.70
2023-03-20T16:51:22.066Z,11.70
2023-03-20T16:53:55.170Z,11.70
2023-03-20T16:56:42.531Z,11.50
2023-03-20T16:59:19.191Z,11.40
2023-03-20T17:01:48.660Z,11.30
2023-03-20T17:04:29.426Z,11.20
2023-03-20T17:07:08.501Z,11.10
2023-03-20T17:09:36.008Z,11.10
2023-03-20T17:12:16.341Z,11.10
2023-03-20T17:14:48.353Z,11.10
2023-03-20T17:17:22.303Z,11.00
2023-03-20T17:19:50.278Z,11.00
2023-03-20T17:22:22.088Z,10.90
2023-03-20T17:24:50.581Z,10.70
2023-03-20T17:27:19.284Z,10.50
2023-03-20T17:29:49.451Z,10.40
2023-03-20T17:32:24.957Z,10.30
2023-03-20T17:34:52.393Z,10.10
2023-03-20T17:37:29.448Z,10.10
2023-03-20T17:39:57.101Z,9.90
2023-03-20T17:42:30.758Z,9.90
2023-03-20T17:44:59.906Z,9.80
2023-03-20T17:47:28.646Z,9.70
2023-03-20T17:49:56.065Z,9.70
2023-03-20T17:52:26.868Z,9.70
2023-03-20T17:54:54.929Z,9.60
2023-03-20T17:57:33.325Z,9.40
2023-03-20T18:00:01.467Z,9.40
2023-03-20T18:02:28.887Z,9.30
2023-03-20T18:04:56.124Z,9.30
2023-03-20T18:07:23.548Z,9.20
2023-03-20T18:09:50.709Z,9.20
2023-03-20T18:12:19.385Z,9.20
2023-03-20T18:14:47.265Z,9.20
2023-03-20T18:17:16.179Z,9.20
2023-03-20T18:19:44.888Z,9.20
2023-03-20T18:22:12.581Z,9.20
2023-03-20T18:24:43.392Z,9.20
2023-03-20T18:27:12.342Z,9.20
2023-03-20T18:29:40.977Z,9.10
2023-03-20T18:32:09.444Z,9.10
2023-03-20T18:34:36.552Z,9.10
2023-03-20T18:37:07.524Z,9.00
2023-03-20T18:39:35.091Z,9.10
2023-03-20T18:42:02.390Z,9.10
2023-03-20T18:44:29.474Z,9.10
2023-03-20T18:46:56.877Z,9.00
2023-03-20T18:49:26.882Z,8.90
2023-03-20T18:51:54.240Z,8.90
2023-03-20T18:54:21.411Z,8.90
2023-03-20T18:56:49.960Z,8.90
2023-03-20T18:59:19.259Z,8.80
2023-03-20T19:01:46.460Z,8.80
2023-03-20T19:04:13.634Z,8.70
2023-03-20T19:06:40.895Z,8.80
2023-03-20T19:09:10.653Z,8.80
2023-03-20T19:11:38.598Z,8.80
2023-03-20T19:14:05.725Z,8.80
2023-03-20T19:16:35.928Z,8.80
2023-03-20T19:19:06.761Z,8.70
2023-03-20T19:21:36.005Z,8.70
2023-03-20T19:24:06.197Z,8.70
2023-03-20T19:26:36.245Z,8.70
2023-03-20T19:29:10.304Z,8.70
2023-03-20T19:31:37.706Z,8.70
2023-03-20T19:34:06.029Z,8.60
2023-03-20T19:36:37.148Z,8.60
2023-03-20T19:39:08.797Z,8.50
2023-03-20T19:41:35.973Z,8.50
2023-03-20T19:44:03.184Z,8.40
2023-03-20T19:46:45.750Z,8.30
2023-03-20T19:49:19.790Z,8.30
2023-03-20T19:51:49.754Z,8.20
2023-03-20T19:54:17.486Z,8.10
2023-03-20T19:56:47.131Z,8.00
2023-03-20T19:59:16.508Z,7.80
2023-03-20T20:01:45.751Z,7.70
2023-03-20T20:04:13.233Z,7.60
2023-03-20T20:06:41.845Z,7.50
2023-03-20T20:09:09.303Z,7.40
2023-03-20T20:11:36.368Z,7.30
2023-03-20T20:14:08.263Z,7.30
2023-03-20T20:16:39.780Z,7.30
2023-03-20T20:19:07.687Z,7.30
2023-03-20T20:24:22.333Z,7.40
2023-03-20T20:26:55.451Z,7.50
2023-03-20T20:29:30.997Z,7.50
2023-03-20T20:32:00.065Z,7.50
2023-03-20T20:38:02.852Z,7.40
2023-03-20T20:40:06.570Z,7.40
2023-03-20T20:42:33.779Z,7.40
2023-03-20T20:45:00.898Z,7.30
2023-03-20T20:47:28.012Z,7.30
2023-03-20T20:49:55.386Z,7.30
2023-03-20T20:52:22.580Z,7.30
2023-03-20T20:54:49.686Z,7.30
2023-03-20T20:57:18.052Z,7.20
2023-03-20T20:59:45.192Z,7.30
2023-03-20T21:02:12.904Z,7.30
2023-03-20T21:04:42.467Z,7.20
2023-03-20T21:07:13.545Z,7.30
2023-03-20T21:09:41.150Z,7.20
2023-03-20T21:12:10.674Z,7.20
2023-03-20T21:14:38.860Z,7.20
2023-03-20T21:17:07.900Z,7.20
2023-03-20T21:19:41.576Z,7.20
2023-03-20T21:22:12.511Z,7.20
2023-03-20T21:24:39.871Z,7.20
2023-03-20T21:27:11.610Z,7.20
2023-03-20T21:29:40.506Z,7.20
2023-03-20T21:32:11.796Z,7.20
2023-03-20T21:34:41.057Z,7.20
2023-03-20T21:39:59.335Z,7.30
2023-03-20T21:42:26.508Z,7.30
2023-03-20T21:45:46.373Z,7.30
2023-03-20T21:48:23.577Z,7.30
2023-03-20T21:51:09.796Z,7.20
2023-03-20T21:59:36.895Z,7.30
2023-03-20T22:02:06.384Z,7.30
2023-03-20T22:07:44.865Z,7.40
2023-03-20T22:10:49.104Z,7.40
2023-03-20T22:13:38.776Z,7.40
2023-03-20T22:16:12.874Z,7.40
2023-03-20T22:30:05.109Z,7.50
2023-03-20T22:41:36.166Z,7.40
2023-03-20T22:44:24.853Z,7.40
2023-03-20T22:46:46.264Z,7.40
2023-03-20T22:49:02.702Z,7.40
2023-03-20T22:51:36.889Z,7.30
2023-03-20T22:54:08.149Z,7.20
2023-03-20T22:56:35.364Z,7.20
2023-03-20T22:59:04.489Z,7.10
2023-03-20T23:01:31.671Z,7.20
2023-03-20T23:03:58.724Z,7.10
2023-03-20T23:06:27.484Z,7.00
2023-03-20T23:08:58.421Z,7.00
2023-03-20T23:11:28.592Z,6.90
2023-03-20T23:13:56.478Z,6.90
2023-03-20T23:16:23.804Z,6.80
2023-03-20T23:18:50.912Z,6.70
2023-03-20T23:21:18.520Z,6.60
2023-03-20T23:23:45.572Z,6.60
2023-03-20T23:26:20.443Z,6.40
2023-03-20T23:28:49.984Z,6.40
2023-03-20T23:31:21.700Z,6.40
2023-03-20T23:33:52.399Z,6.40
2023-03-20T23:36:34.971Z,6.40
2023-03-20T23:39:04.753Z,6.40
2023-03-20T23:42:01.809Z,6.40
2023-03-20T23:44:19.025Z,6.40
2023-03-20T23:46:48.121Z,6.40
2023-03-20T23:49:16.566Z,6.50
2023-03-20T23:51:43.867Z,6.50
2023-03-20T23:54:12.711Z,6.50
2023-03-20T23:56:40.313Z,6.50
2023-03-20T23:59:20.680Z,6.50
